createdAt,value
2022-08-17T00:02:48.551Z,19.28
2022-08-17T00:06:14.423Z,19.29
2022-08-17T00:09:21.089Z,19.30
2022-08-17T00:12:40.764Z,19.28
2022-08-17T00:15:36.706Z,19.23
2022-08-17T00:19:06.512Z,19.16
2022-08-17T00:22:28.738Z,19.11
2022-08-17T00:25:03.304Z,19.10
2022-08-17T00:28:09.342Z,19.05
2022-08-17T00:31:16.527Z,18.98
2022-08-17T00:34:22.806Z,18.91
2022-08-17T00:37:29.669Z,18.87
2022-08-17T00:40:44.607Z,18.88
2022-08-17T00:44:07.823Z,18.85
2022-08-17T00:47:14.299Z,18.84
2022-08-17T00:50:23.613Z,18.84
2022-08-17T00:53:29.248Z,18.84
2022-08-17T00:56:38.809Z,18.82
2022-08-17T00:59:46.817Z,18.80
2022-08-17T01:02:56.512Z,18.79
2022-08-17T01:06:04.580Z,18.79
2022-08-17T01:09:12.582Z,18.74
2022-08-17T01:12:18.688Z,18.70
2022-08-17T01:15:24.907Z,18.66
2022-08-17T01:18:31.797Z,18.67
2022-08-17T01:21:57.811Z,18.65
2022-08-17T01:25:09.515Z,18.62
2022-08-17T01:28:36.401Z,18.62
2022-08-17T01:31:23.691Z,18.58
2022-08-17T01:34:43.968Z,18.55
2022-08-17T01:37:48.113Z,18.53
2022-08-17T01:40:57.688Z,18.55
2022-08-17T01:44:19.160Z,18.54
2022-08-17T01:47:24.941Z,18.50
2022-08-17T01:50:34.977Z,18.50
2022-08-17T01:53:49.826Z,18.53
2022-08-17T01:56:59.171Z,18.54
2022-08-17T02:00:04.816Z,18.53
2022-08-17T02:03:10.284Z,18.50
2022-08-17T02:06:27.462Z,18.43
2022-08-17T02:09:29.776Z,18.42
2022-08-17T02:12:38.865Z,18.41
2022-08-17T02:15:41.507Z,18.37
2022-08-17T02:18:47.211Z,18.32
2022-08-17T02:21:53.402Z,18.33
2022-08-17T02:25:02.095Z,18.36
2022-08-17T02:28:06.044Z,18.37
2022-08-17T02:31:11.995Z,18.33
2022-08-17T02:34:17.793Z,18.32
2022-08-17T02:37:25.615Z,18.31
2022-08-17T02:40:35.950Z,18.33
2022-08-17T02:43:38.678Z,18.32
2022-08-17T02:46:44.542Z,18.31
2022-08-17T02:49:55.474Z,18.28
2022-08-17T02:53:04.585Z,18.26
2022-08-17T02:56:10.410Z,18.26
2022-08-17T02:59:15.360Z,18.26
2022-08-17T03:02:22.137Z,18.26
2022-08-17T03:05:30.168Z,18.28
2022-08-17T03:08:37.002Z,18.28
2022-08-17T03:11:41.778Z,18.29
2022-08-17T03:14:47.103Z,18.29
2022-08-17T03:17:54.803Z,18.26
2022-08-17T03:21:02.008Z,18.24
2022-08-17T03:24:11.610Z,18.23
2022-08-17T03:27:20.767Z,18.24
2022-08-17T03:30:28.546Z,18.25
2022-08-17T03:33:34.539Z,18.27
2022-08-17T03:36:39.573Z,18.32
2022-08-17T03:39:47.315Z,18.36
2022-08-17T03:42:54.250Z,18.35
2022-08-17T03:46:33.829Z,18.37
2022-08-17T03:49:44.260Z,18.40
2022-08-17T03:53:07.578Z,18.40
2022-08-17T03:56:35.553Z,18.40
2022-08-17T03:59:40.555Z,18.46
2022-08-17T04:02:48.653Z,18.50
2022-08-17T04:05:55.116Z,18.54
2022-08-17T04:09:01.599Z,18.62
2022-08-17T04:12:08.051Z,18.73
2022-08-17T04:15:13.634Z,18.86
2022-08-17T04:18:19.557Z,18.98
2022-08-17T04:21:27.700Z,19.12
2022-08-17T04:24:36.935Z,19.23
2022-08-17T04:27:43.189Z,19.31
2022-08-17T04:30:54.040Z,19.41
2022-08-17T04:34:01.737Z,19.51
2022-08-17T04:37:09.401Z,19.59
2022-08-17T04:40:37.651Z,19.67
2022-08-17T04:43:48.692Z,19.73
2022-08-17T04:46:54.504Z,19.82
2022-08-17T04:50:01.271Z,19.91
2022-08-17T04:53:08.133Z,20.02
2022-08-17T04:56:18.919Z,20.12
2022-08-17T04:59:30.780Z,20.24
2022-08-17T05:02:38.385Z,20.38
2022-08-17T05:05:50.428Z,20.52
2022-08-17T05:08:56.442Z,20.66
2022-08-17T05:12:03.175Z,20.80
2022-08-17T05:15:08.892Z,20.94
2022-08-17T05:18:14.746Z,21.09
2022-08-17T05:21:21.804Z,21.24
2022-08-17T05:24:38.324Z,21.42
2022-08-17T05:30:57.794Z,21.79
2022-08-17T05:34:05.318Z,21.82
2022-08-17T05:37:10.147Z,21.92
2022-08-17T05:40:17.027Z,21.99
2022-08-17T05:43:34.922Z,22.04
2022-08-17T05:46:42.429Z,22.13
2022-08-17T05:49:50.448Z,22.21
2022-08-17T05:53:37.517Z,22.33
2022-08-17T05:57:00.356Z,22.39
2022-08-17T06:00:31.254Z,22.47
2022-08-17T06:04:05.527Z,22.56
2022-08-17T06:07:41.012Z,22.61
2022-08-17T06:11:05.484Z,22.70
2022-08-17T06:14:37.847Z,22.77
2022-08-17T06:17:43.744Z,22.88
2022-08-17T06:21:05.764Z,22.96
2022-08-17T06:24:19.461Z,23.06
2022-08-17T06:27:53.884Z,23.14
2022-08-17T06:31:03.901Z,23.19
2022-08-17T06:34:12.916Z,23.24
2022-08-17T06:37:42.787Z,23.33
2022-08-17T06:41:14.302Z,23.44
2022-08-17T06:44:50.194Z,23.50
2022-08-17T06:48:04.875Z,23.61
2022-08-17T06:51:36.987Z,23.70
2022-08-17T06:55:07.469Z,23.86
2022-08-17T06:58:21.516Z,24.09
2022-08-17T07:01:28.617Z,24.27
2022-08-17T07:04:29.856Z,24.40
2022-08-17T07:07:40.733Z,24.47
2022-08-17T07:10:30.383Z,24.56
2022-08-17T07:13:51.843Z,24.63
2022-08-17T07:16:56.729Z,24.68
2022-08-17T07:20:03.578Z,24.73
2022-08-17T07:23:38.771Z,24.77
2022-08-17T07:26:45.502Z,24.80
2022-08-17T07:30:00.895Z,24.90
2022-08-17T07:33:24.425Z,25.03
2022-08-17T07:36:43.165Z,25.11
2022-08-17T07:40:14.802Z,25.21
2022-08-17T07:42:57.898Z,25.36
2022-08-17T07:46:51.791Z,25.49
2022-08-17T07:50:00.409Z,25.63
2022-08-17T07:53:06.984Z,25.86
2022-08-17T07:56:12.716Z,26.02
2022-08-17T07:59:33.848Z,26.15
2022-08-17T08:02:45.470Z,26.25
2022-08-17T08:05:50.124Z,26.38
2022-08-17T08:08:42.636Z,26.47
2022-08-17T08:11:44.479Z,26.54
2022-08-17T08:14:41.163Z,26.62
2022-08-17T08:17:30.596Z,26.69
2022-08-17T08:20:50.937Z,26.75
2022-08-17T08:23:58.141Z,26.85
2022-08-17T08:27:32.777Z,26.91
2022-08-17T08:30:39.647Z,26.97
2022-08-17T08:34:05.039Z,26.98
2022-08-17T08:37:35.577Z,26.96
2022-08-17T08:41:08.904Z,26.97
2022-08-17T08:44:22.016Z,27.01
2022-08-17T08:47:52.976Z,27.03
2022-08-17T08:51:23.260Z,26.99
2022-08-17T08:54:52.731Z,26.99
2022-08-17T08:58:32.068Z,27.06
2022-08-17T09:01:43.851Z,27.14
2022-08-17T09:05:33.008Z,27.22
2022-08-17T09:09:03.721Z,27.27
2022-08-17T09:12:33.280Z,27.38
2022-08-17T09:15:49.177Z,27.41
2022-08-17T09:19:04.452Z,27.40
2022-08-17T09:22:22.571Z,27.48
2022-08-17T09:25:48.769Z,27.57
2022-08-17T09:28:56.079Z,27.72
2022-08-17T09:32:21.337Z,27.89
2022-08-17T09:35:37.442Z,28.02
2022-08-17T09:38:48.874Z,28.11
2022-08-17T09:42:11.746Z,28.19
2022-08-17T09:45:40.851Z,28.23
2022-08-17T09:48:55.476Z,28.24
2022-08-17T09:52:06.036Z,28.31
2022-08-17T09:55:12.804Z,28.43
2022-08-17T09:58:29.131Z,28.50
2022-08-17T10:01:53.887Z,28.54
2022-08-17T10:05:29.858Z,28.55
2022-08-17T10:08:45.708Z,28.61
2022-08-17T10:12:17.379Z,28.76
2022-08-17T10:15:32.167Z,28.92
2022-08-17T10:19:09.229Z,29.09
2022-08-17T10:22:35.120Z,29.22
2022-08-17T10:25:56.154Z,29.34
2022-08-17T10:29:26.997Z,29.39
2022-08-17T10:32:59.858Z,29.32
2022-08-17T10:36:19.051Z,29.17
2022-08-17T10:40:01.159Z,29.10
2022-08-17T10:43:18.537Z,29.21
2022-08-17T10:46:42.507Z,29.36
2022-08-17T10:49:59.428Z,29.45
2022-08-17T10:53:19.437Z,29.60
2022-08-17T10:56:34.571Z,30.04
2022-08-17T10:59:54.630Z,30.26
2022-08-17T11:03:11.519Z,30.26
2022-08-17T11:06:23.830Z,30.42
2022-08-17T11:10:13.898Z,30.45
2022-08-17T11:13:36.392Z,30.34
2022-08-17T11:17:23.692Z,30.17
2022-08-17T11:21:17.125Z,30.02
2022-08-17T11:24:38.236Z,29.80
2022-08-17T11:27:48.060Z,29.62
2022-08-17T11:31:10.741Z,29.53
2022-08-17T11:34:30.499Z,29.47
2022-08-17T11:37:59.534Z,29.51
2022-08-17T11:41:21.147Z,30.01
2022-08-17T11:45:09.280Z,30.01
2022-08-17T11:49:00.646Z,30.04
2022-08-17T11:52:21.153Z,30.04
2022-08-17T11:55:46.888Z,30.00
2022-08-17T11:58:59.942Z,30.00
2022-08-17T12:02:09.749Z,29.96
2022-08-17T12:05:34.167Z,29.95
2022-08-17T12:08:40.966Z,29.97
2022-08-17T12:12:13.035Z,29.90
2022-08-17T12:15:11.049Z,29.90
2022-08-17T12:18:15.766Z,29.77
2022-08-17T12:21:45.987Z,29.82
2022-08-17T12:25:20.692Z,29.97
2022-08-17T12:28:41.362Z,30.14
2022-08-17T12:31:54.635Z,30.23
2022-08-17T12:35:10.852Z,30.23
2022-08-17T12:38:28.156Z,30.28
2022-08-17T12:41:35.970Z,30.31
2022-08-17T12:44:53.409Z,30.39
2022-08-17T12:48:00.103Z,30.45
2022-08-17T12:51:11.334Z,30.52
2022-08-17T12:54:18.930Z,30.58
2022-08-17T12:57:29.671Z,30.62
2022-08-17T13:00:47.700Z,30.68
2022-08-17T13:04:01.031Z,30.80
2022-08-17T13:07:05.398Z,30.88
2022-08-17T13:10:13.399Z,30.80
2022-08-17T13:13:39.176Z,30.75
2022-08-17T13:16:45.081Z,30.75
2022-08-17T13:19:53.798Z,30.68
2022-08-17T13:23:02.562Z,30.65
2022-08-17T13:26:17.350Z,30.63
2022-08-17T13:29:53.254Z,30.68
2022-08-17T13:33:04.775Z,30.65
2022-08-17T13:36:12.718Z,30.57
2022-08-17T13:39:35.762Z,30.53
2022-08-17T13:43:01.115Z,30.48
2022-08-17T13:46:08.508Z,30.47
2022-08-17T13:49:21.351Z,30.40
2022-08-17T13:52:55.314Z,30.30
2022-08-17T13:56:37.117Z,30.18
2022-08-17T13:59:53.900Z,30.09
2022-08-17T14:02:40.348Z,30.04
2022-08-17T14:05:47.081Z,29.97
2022-08-17T14:08:53.047Z,29.97
2022-08-17T14:12:01.534Z,29.93
2022-08-17T14:15:08.935Z,29.85
2022-08-17T14:18:14.716Z,29.85
2022-08-17T14:21:22.318Z,29.86
2022-08-17T14:24:45.091Z,29.84
2022-08-17T14:27:52.852Z,29.80
2022-08-17T14:30:59.226Z,29.82
2022-08-17T14:34:06.219Z,29.84
2022-08-17T14:37:11.162Z,29.87
2022-08-17T14:40:22.339Z,29.95
2022-08-17T14:43:29.611Z,30.01
2022-08-17T14:46:36.102Z,30.04
2022-08-17T14:49:43.403Z,30.10
2022-08-17T14:52:56.231Z,30.10
2022-08-17T14:56:08.479Z,30.03
2022-08-17T14:59:14.280Z,29.94
2022-08-17T15:02:20.919Z,29.79
2022-08-17T15:05:26.880Z,29.71
2022-08-17T15:08:34.628Z,29.58
2022-08-17T15:11:41.826Z,29.58
2022-08-17T15:14:51.857Z,29.48
2022-08-17T15:17:58.985Z,29.39
2022-08-17T15:21:05.616Z,29.27
2022-08-17T15:24:14.272Z,29.27
2022-08-17T15:27:32.280Z,29.15
2022-08-17T15:30:33.950Z,28.99
2022-08-17T15:33:41.523Z,28.87
2022-08-17T15:36:49.381Z,28.73
2022-08-17T15:39:53.926Z,28.63
2022-08-17T15:43:01.063Z,28.50
2022-08-17T15:46:21.783Z,28.39
2022-08-17T15:49:28.476Z,28.30
2022-08-17T15:52:42.298Z,28.20
2022-08-17T15:55:51.596Z,28.11
2022-08-17T15:59:03.446Z,28.03
2022-08-17T16:03:14.277Z,27.94
2022-08-17T16:05:25.247Z,27.83
2022-08-17T16:08:36.235Z,27.75
2022-08-17T16:11:44.645Z,27.68
2022-08-17T16:14:53.237Z,27.63
2022-08-17T16:18:00.733Z,27.57
2022-08-17T16:21:09.293Z,27.53
2022-08-17T16:24:17.584Z,27.45
2022-08-17T16:27:24.330Z,27.39
2022-08-17T16:30:30.306Z,27.31
2022-08-17T16:33:37.308Z,27.24
2022-08-17T16:36:55.332Z,27.17
2022-08-17T16:39:52.518Z,27.08
2022-08-17T16:42:58.215Z,27.00
2022-08-17T16:46:07.943Z,26.93
2022-08-17T16:49:35.921Z,26.84
2022-08-17T16:52:32.309Z,26.75
2022-08-17T16:55:36.562Z,26.65
2022-08-17T16:58:44.213Z,26.58
2022-08-17T17:01:51.900Z,26.46
2022-08-17T17:05:09.703Z,26.34
2022-08-17T17:08:23.407Z,26.25
2022-08-17T17:11:45.257Z,26.14
2022-08-17T17:15:00.209Z,26.08
2022-08-17T17:18:08.221Z,26.02
2022-08-17T17:21:12.935Z,25.96
2022-08-17T17:24:23.373Z,25.91
2022-08-17T17:27:55.323Z,25.85
2022-08-17T17:31:13.832Z,25.79
2022-08-17T17:34:20.460Z,25.72
2022-08-17T17:37:31.137Z,25.65
2022-08-17T17:40:49.745Z,25.59
2022-08-17T17:43:56.063Z,25.49
2022-08-17T17:47:14.821Z,25.45
2022-08-17T17:50:21.877Z,25.35
2022-08-17T17:53:43.058Z,25.27
2022-08-17T17:56:59.544Z,25.18
2022-08-17T18:00:22.752Z,25.09
2022-08-17T18:03:59.415Z,24.99
2022-08-17T18:07:26.588Z,24.93
2022-08-17T18:10:43.161Z,24.88
2022-08-17T18:14:29.897Z,24.81
2022-08-17T18:17:37.279Z,24.73
2022-08-17T18:20:53.744Z,24.68
2022-08-17T18:23:54.544Z,24.64
2022-08-17T18:27:09.417Z,24.59
2022-08-17T18:30:30.070Z,24.54
2022-08-17T18:33:37.766Z,24.49
2022-08-17T18:36:47.848Z,24.46
2022-08-17T18:39:55.484Z,24.42
2022-08-17T18:43:04.402Z,24.39
2022-08-17T18:46:11.974Z,24.35
2022-08-17T18:49:21.905Z,24.33
2022-08-17T18:52:44.817Z,24.29
2022-08-17T18:55:51.173Z,24.25
2022-08-17T18:58:56.264Z,24.20
2022-08-17T19:02:38.750Z,24.18
2022-08-17T19:05:48.882Z,24.15
2022-08-17T19:08:56.572Z,24.12
2022-08-17T19:12:02.557Z,24.08
2022-08-17T19:15:08.554Z,24.05
2022-08-17T19:18:30.741Z,24.02
2022-08-17T19:21:44.040Z,23.97
2022-08-17T19:24:53.155Z,23.93
2022-08-17T19:28:21.508Z,23.89
2022-08-17T19:31:24.775Z,23.86
2022-08-17T19:34:33.990Z,23.83
2022-08-17T19:37:56.966Z,23.78
2022-08-17T19:41:24.700Z,23.75
2022-08-17T19:45:06.959Z,23.71
2022-08-17T19:48:36.724Z,23.68
2022-08-17T19:52:09.086Z,23.64
2022-08-17T19:55:44.781Z,23.60
2022-08-17T19:59:08.670Z,23.54
2022-08-17T20:02:28.862Z,23.48
2022-08-17T20:06:08.878Z,23.43
2022-08-17T20:08:55.919Z,23.42
2022-08-17T20:12:08.037Z,23.39
2022-08-17T20:15:18.691Z,23.34
2022-08-17T20:18:29.300Z,23.25
2022-08-17T20:22:16.980Z,23.17
2022-08-17T20:25:30.549Z,23.08
2022-08-17T20:28:46.667Z,23.02
2022-08-17T20:32:08.543Z,22.98
2022-08-17T20:35:17.480Z,22.96
2022-08-17T20:38:29.407Z,22.95
2022-08-17T20:41:38.241Z,22.91
2022-08-17T20:44:49.415Z,22.87
2022-08-17T20:51:33.801Z,22.78
2022-08-17T20:55:10.673Z,22.73
2022-08-17T20:58:32.410Z,22.66
2022-08-17T21:01:52.122Z,22.58
2022-08-17T21:05:12.273Z,22.51
2022-08-17T21:08:30.840Z,22.46
2022-08-17T21:11:58.247Z,22.40
2022-08-17T21:15:18.285Z,22.37
2022-08-17T21:18:51.790Z,22.32
2022-08-17T21:22:21.397Z,22.27
2022-08-17T21:25:58.996Z,22.21
2022-08-17T21:29:31.936Z,22.16
2022-08-17T21:32:33.307Z,22.11
2022-08-17T21:35:42.275Z,22.07
2022-08-17T21:39:03.911Z,22.03
2022-08-17T21:42:11.414Z,21.98
2022-08-17T21:45:37.542Z,21.90
2022-08-17T21:48:44.824Z,21.84
2022-08-17T21:52:06.047Z,21.78
2022-08-17T21:55:14.147Z,21.73
2022-08-17T21:58:26.676Z,21.70
2022-08-17T22:01:54.740Z,21.64
2022-08-17T22:05:15.029Z,21.60
2022-08-17T22:08:33.603Z,21.57
2022-08-17T22:11:41.614Z,21.54
2022-08-17T22:23:35.833Z,21.36
2022-08-17T22:27:02.572Z,21.25
2022-08-17T22:30:13.151Z,21.21
2022-08-17T22:34:05.695Z,21.19
2022-08-17T22:40:40.148Z,21.09
2022-08-17T22:43:46.807Z,21.08
2022-08-17T22:46:57.590Z,21.04
2022-08-17T22:50:17.061Z,20.98
2022-08-17T22:53:53.742Z,20.93
2022-08-17T22:57:35.235Z,20.89
2022-08-17T23:00:58.194Z,20.85
2022-08-17T23:04:12.851Z,20.84
2022-08-17T23:07:18.613Z,20.80
2022-08-17T23:10:25.898Z,20.76
2022-08-17T23:13:33.561Z,20.75
2022-08-17T23:16:41.201Z,20.74
2022-08-17T23:19:47.160Z,20.72
2022-08-17T23:22:53.301Z,20.70
2022-08-17T23:26:01.858Z,20.67
2022-08-17T23:29:09.006Z,20.64
2022-08-17T23:32:16.330Z,20.62
2022-08-17T23:35:39.062Z,20.61
2022-08-17T23:38:33.255Z,20.60
2022-08-17T23:41:39.513Z,20.61
2022-08-17T23:44:45.444Z,20.60
2022-08-17T23:47:50.852Z,20.55
2022-08-17T23:50:58.569Z,20.53
2022-08-17T23:54:13.495Z,20.46
2022-08-17T23:57:19.485Z,20.41
